Time;durP1;ratioP1;P1;durP2;ratioP2;P2;SDS_P1;SDS_P2;PMS_P1;PMS_P2;Temp;Humidity;BMP_temperature;BMP_pressure;BME280_temperature;BME280_humidity;BME280_pressure;Samples;Min_cycle;Max_cycle;Signal;HPM_P1;HPM_P2
2022/06/27 00:01:16;;;;;;;3.92;2.90;;;23.60;99.90;;;;;;4162840;28;20664;-76
2022/06/27 00:03:18;;;;;;;2.97;2.67;;;23.60;99.90;;;;;;4162827;28;20255;-75
2022/06/27 00:05:22;;;;;;;4.90;3.28;;;23.60;99.90;;;;;;4161633;28;20657;-76
2022/06/27 00:07:25;;;;;;;4.32;3.10;;;23.60;99.90;;;;;;4160784;28;20216;-76
2022/06/27 00:09:27;;;;;;;4.78;3.22;;;23.60;99.90;;;;;;4161052;28;20208;-76
2022/06/27 00:11:30;;;;;;;3.70;2.92;;;23.60;99.90;;;;;;4161311;28;20208;-75
2022/06/27 00:13:32;;;;;;;4.07;2.97;;;23.60;99.90;;;;;;4159971;28;20216;-76
2022/06/27 00:15:34;;;;;;;4.00;3.40;;;23.60;99.90;;;;;;4159422;28;20213;-76
2022/06/27 00:17:37;;;;;;;5.15;3.53;;;23.60;99.90;;;;;;4161307;28;20258;-75
2022/06/27 00:19:39;;;;;;;4.03;3.17;;;23.60;99.90;;;;;;4161318;28;20236;-76
2022/06/27 00:21:43;;;;;;;3.97;3.20;;;23.60;99.90;;;;;;4161882;28;20661;-76
2022/06/27 00:23:45;;;;;;;4.47;3.30;;;23.60;99.90;;;;;;4161281;28;20213;-75
2022/06/27 00:25:48;;;;;;;4.22;3.38;;;23.60;99.90;;;;;;4161690;28;20216;-76
2022/06/27 00:27:51;;;;;;;4.22;2.90;;;23.60;99.90;;;;;;4160186;28;21047;-76
2022/06/27 00:29:53;;;;;;;3.47;2.83;;;23.60;99.90;;;;;;4160643;28;20270;-76
2022/06/27 00:31:56;;;;;;;3.70;3.13;;;23.60;99.90;;;;;;4160728;28;20225;-76
2022/06/27 00:33:58;;;;;;;3.97;3.33;;;23.60;99.90;;;;;;4161114;28;20743;-76
2022/06/27 00:36:01;;;;;;;4.15;3.20;;;23.60;99.90;;;;;;4161290;28;20278;-76
2022/06/27 00:38:06;;;;;;;4.35;3.00;;;23.60;99.90;;;;;;4161018;28;20227;-75
2022/06/27 00:40:09;;;;;;;4.30;3.30;;;23.60;99.90;;;;;;4160725;28;20286;-76
2022/06/27 00:42:11;;;;;;;3.72;2.63;;;23.60;99.90;;;;;;4159099;28;20224;-76
2022/06/27 00:44:32;;;;;;;3.42;2.88;;;23.60;99.90;;;;;;4161409;28;20216;-76
2022/06/27 00:46:34;;;;;;;3.85;3.20;;;23.50;99.90;;;;;;4159539;28;20263;-76
2022/06/27 00:48:36;;;;;;;3.38;3.05;;;23.50;99.90;;;;;;4159620;28;20266;-76
2022/06/27 00:50:40;;;;;;;4.53;3.08;;;23.50;99.90;;;;;;4160253;28;20274;-76
2022/06/27 00:52:43;;;;;;;3.22;2.92;;;23.50;99.90;;;;;;4160609;28;20672;-76
2022/06/27 00:54:47;;;;;;;4.10;3.03;;;23.50;99.90;;;;;;4160844;28;20212;-76
2022/06/27 00:56:50;;;;;;;3.65;2.95;;;23.60;99.90;;;;;;4160465;28;20311;-76
2022/06/27 00:58:53;;;;;;;5.20;3.13;;;23.50;99.90;;;;;;4160199;28;20216;-76
2022/06/27 01:00:55;;;;;;;3.95;3.17;;;23.60;99.90;;;;;;4160283;28;20235;-76
2022/06/27 01:02:57;;;;;;;6.55;3.50;;;23.50;99.90;;;;;;4160370;28;20228;-76
2022/06/27 01:04:59;;;;;;;4.53;3.10;;;23.50;99.90;;;;;;4159223;28;20217;-76
2022/06/27 01:07:02;;;;;;;3.50;2.85;;;23.50;99.90;;;;;;4159227;28;20279;-75
2022/06/27 01:09:04;;;;;;;3.63;2.67;;;23.50;99.90;;;;;;4160429;28;20240;-76
2022/06/27 01:11:08;;;;;;;3.47;2.60;;;23.50;99.90;;;;;;4158626;28;20290;-76
2022/06/27 01:13:11;;;;;;;4.80;3.20;;;23.50;99.90;;;;;;4160261;28;20224;-74
2022/06/27 01:15:13;;;;;;;3.92;3.20;;;23.50;99.90;;;;;;4159953;28;20212;-74
2022/06/27 01:17:15;;;;;;;5.20;3.30;;;23.50;99.90;;;;;;4159968;28;20289;-74
2022/06/27 01:19:18;;;;;;;3.65;2.90;;;23.50;99.90;;;;;;4160624;28;20986;-74
2022/06/27 01:21:23;;;;;;;5.22;3.20;;;23.50;99.90;;;;;;4155716;28;20244;-74
2022/06/27 01:23:27;;;;;;;5.57;3.17;;;23.50;99.90;;;;;;4158805;28;20216;-74
2022/06/27 01:25:29;;;;;;;5.13;2.78;;;23.50;99.90;;;;;;4160105;28;20212;-74
2022/06/27 01:27:31;;;;;;;4.03;3.15;;;23.50;99.90;;;;;;4160321;28;20216;-74
2022/06/27 01:29:34;;;;;;;3.35;2.88;;;23.50;99.90;;;;;;4160060;28;20216;-74
2022/06/27 01:31:37;;;;;;;5.13;3.30;;;23.50;99.90;;;;;;4159594;28;20294;-74
2022/06/27 01:33:40;;;;;;;3.60;2.65;;;23.50;99.90;;;;;;4160070;28;21071;-74
2022/06/27 01:35:42;;;;;;;4.85;3.67;;;23.50;99.90;;;;;;4160762;28;20636;-73
2022/06/27 01:37:44;;;;;;;3.58;2.85;;;23.50;99.90;;;;;;4158491;28;20217;-74
2022/06/27 01:39:48;;;;;;;5.30;3.20;;;23.50;99.90;;;;;;4159380;28;20623;-74
2022/06/27 01:41:52;;;;;;;4.68;3.00;;;23.50;99.90;;;;;;4159775;28;20232;-74
2022/06/27 01:43:55;;;;;;;4.25;2.70;;;23.50;99.90;;;;;;4159908;28;20734;-74
2022/06/27 01:45:57;;;;;;;4.85;3.20;;;23.40;99.90;;;;;;4158664;28;20262;-74
2022/06/27 01:47:59;;;;;;;4.30;3.00;;;23.40;99.90;;;;;;4160003;28;20328;-74
2022/06/27 01:50:02;;;;;;;4.22;3.08;;;23.40;99.90;;;;;;4160113;28;20213;-74
2022/06/27 01:52:06;;;;;;;3.45;3.00;;;23.40;99.90;;;;;;4157388;28;20370;-74
2022/06/27 01:54:09;;;;;;;4.75;3.25;;;23.50;99.90;;;;;;4160360;28;20683;-74
2022/06/27 01:56:13;;;;;;;4.45;3.20;;;23.40;99.90;;;;;;4159175;28;20501;-74
2022/06/27 01:58:15;;;;;;;4.93;2.85;;;23.40;99.90;;;;;;4159381;28;20278;-74
2022/06/27 02:00:18;;;;;;;3.28;2.88;;;23.40;99.90;;;;;;4157866;28;20266;-74
2022/06/27 02:02:21;;;;;;;4.53;3.17;;;23.40;99.90;;;;;;4159650;28;20212;-74
2022/06/27 02:04:23;;;;;;;4.25;2.92;;;23.40;99.90;;;;;;4159577;28;20216;-74
2022/06/27 02:06:26;;;;;;;3.55;2.92;;;23.40;99.90;;;;;;4159215;28;20254;-74
2022/06/27 02:08:29;;;;;;;3.45;2.92;;;23.40;99.90;;;;;;4158423;28;20248;-74
2022/06/27 02:10:31;;;;;;;4.15;3.15;;;23.40;99.90;;;;;;4159545;28;20213;-74
2022/06/27 02:12:35;;;;;;;3.45;2.88;;;23.40;99.90;;;;;;4157461;28;20274;-74
2022/06/27 02:14:37;;;;;;;4.50;3.13;;;23.40;99.90;;;;;;4156981;28;20221;-74
2022/06/27 02:16:41;;;;;;;4.88;3.13;;;23.40;99.90;;;;;;4158799;28;20281;-74
2022/06/27 02:18:45;;;;;;;3.22;2.92;;;23.40;99.90;;;;;;4159901;28;20656;-74
2022/06/27 02:20:47;;;;;;;3.53;3.03;;;23.40;99.90;;;;;;4154929;28;20278;-74
2022/06/27 02:22:49;;;;;;;4.10;3.08;;;23.40;99.90;;;;;;4157215;28;20274;-74
2022/06/27 02:24:52;;;;;;;3.58;3.03;;;23.40;99.90;;;;;;4159606;28;20274;-74
2022/06/27 02:26:54;;;;;;;5.40;3.40;;;23.40;99.90;;;;;;4159261;28;20285;-74
2022/06/27 02:28:59;;;;;;;3.80;2.85;;;23.40;99.90;;;;;;4156230;28;20216;-74
2022/06/27 02:31:02;;;;;;;3.72;2.88;;;23.40;99.90;;;;;;4157924;28;20275;-74
2022/06/27 02:33:05;;;;;;;4.10;2.72;;;23.40;99.90;;;;;;4159615;28;20221;-74
2022/06/27 02:35:09;;;;;;;3.22;2.78;;;23.30;99.90;;;;;;4159324;28;20208;-74
2022/06/27 02:37:13;;;;;;;4.13;2.95;;;23.30;99.90;;;;;;4159049;28;20281;-74
2022/06/27 02:39:19;;;;;;;4.68;3.15;;;23.40;99.90;;;;;;4159569;28;20259;-74
2022/06/27 02:41:23;;;;;;;4.32;2.90;;;23.40;99.90;;;;;;4159358;28;20584;-74
2022/06/27 02:43:27;;;;;;;5.35;2.95;;;23.40;99.90;;;;;;4159466;28;20234;-74
2022/06/27 02:45:31;;;;;;;3.65;2.95;;;23.30;99.90;;;;;;4158177;28;20266;-74
2022/06/27 02:47:38;;;;;;;3.30;3.00;;;23.30;99.90;;;;;;4155034;28;20216;-74
2022/06/27 02:49:40;;;;;;;3.83;2.97;;;23.30;99.90;;;;;;4159168;28;20237;-74
2022/06/27 02:51:44;;;;;;;4.35;3.33;;;23.30;99.90;;;;;;4161222;28;20212;-74
2022/06/27 02:53:54;;;;;;;4.57;2.78;;;23.30;99.90;;;;;;4162892;28;20243;-74
2022/06/27 02:55:58;;;;;;;3.25;2.95;;;23.30;99.90;;;;;;4162729;28;20254;-74
2022/06/27 02:58:07;;;;;;;3.65;2.80;;;23.30;99.90;;;;;;4162124;28;20262;-74
2022/06/27 03:00:12;;;;;;;6.10;3.30;;;23.30;99.90;;;;;;4163210;28;20748;-74
2022/06/27 03:02:18;;;;;;;4.57;3.28;;;23.30;99.90;;;;;;4162982;28;20363;-74
2022/06/27 03:04:20;;;;;;;3.95;3.08;;;23.30;99.90;;;;;;4161115;28;20239;-74
2022/06/27 03:06:24;;;;;;;5.55;2.97;;;23.30;99.90;;;;;;4160428;28;20212;-74
2022/06/27 03:08:36;;;;;;;3.05;2.75;;;23.30;99.90;;;;;;4162824;28;20301;-74
2022/06/27 03:10:38;;;;;;;3.42;2.30;;;23.30;99.90;;;;;;4159369;28;20580;-74
2022/06/27 03:12:41;;;;;;;4.50;3.05;;;23.30;99.90;;;;;;4162482;28;20208;-74
2022/06/27 03:14:43;;;;;;;3.85;2.88;;;23.30;99.90;;;;;;4162558;28;20253;-74
2022/06/27 03:16:45;;;;;;;4.40;3.00;;;23.30;99.90;;;;;;4162338;28;20258;-74
2022/06/27 03:18:51;;;;;;;3.55;2.80;;;23.30;99.90;;;;;;4162101;28;20274;-74
2022/06/27 03:20:53;;;;;;;4.90;3.08;;;23.30;99.90;;;;;;4160595;28;20637;-74
2022/06/27 03:22:55;;;;;;;4.28;2.95;;;23.30;99.90;;;;;;4160850;28;20224;-74
2022/06/27 03:24:58;;;;;;;2.50;2.30;;;23.30;99.90;;;;;;4162112;28;20220;-74
2022/06/27 03:27:00;;;;;;;4.10;2.95;;;23.30;99.90;;;;;;4161796;28;20274;-74
2022/06/27 03:29:03;;;;;;;6.25;3.00;;;23.30;99.90;;;;;;4162008;28;20305;-74
2022/06/27 03:31:05;;;;;;;4.93;3.08;;;23.30;99.90;;;;;;4161709;28;20217;-74
2022/06/27 03:33:08;;;;;;;2.90;2.60;;;23.30;99.90;;;;;;4161884;28;20213;-73
2022/06/27 03:35:12;;;;;;;4.85;2.95;;;23.30;99.90;;;;;;4162077;28;20213;-74
2022/06/27 03:37:14;;;;;;;3.55;2.97;;;23.30;99.90;;;;;;4161292;28;20274;-74
2022/06/27 03:39:16;;;;;;;4.80;3.10;;;23.30;99.90;;;;;;4161547;28;20216;-74
2022/06/27 03:41:19;;;;;;;3.83;2.70;;;23.30;99.90;;;;;;4161986;28;20220;-74
2022/06/27 03:43:21;;;;;;;4.95;3.15;;;23.30;99.90;;;;;;4161750;28;20266;-74
2022/06/27 03:45:24;;;;;;;3.22;2.70;;;23.30;99.90;;;;;;4161837;28;20212;-74
2022/06/27 03:47:26;;;;;;;4.28;2.95;;;23.20;99.90;;;;;;4161441;28;20212;-74
2022/06/27 03:51:51;;;;;;;4.47;3.17;;;23.30;99.90;;;;;;4161159;28;20200;-74
2022/06/27 03:53:54;;;;;;;4.68;3.10;;;23.20;99.90;;;;;;4161136;28;20216;-74
2022/06/27 03:55:56;;;;;;;4.57;2.92;;;23.30;99.90;;;;;;4161161;28;20216;-74
2022/06/27 03:57:59;;;;;;;3.78;2.92;;;23.20;99.90;;;;;;4161774;28;20224;-74
2022/06/27 04:00:02;;;;;;;4.28;2.88;;;23.30;99.90;;;;;;4161594;28;20216;-74
2022/06/27 04:02:05;;;;;;;4.00;2.63;;;23.30;99.90;;;;;;4160774;28;20236;-74
2022/06/27 04:04:07;;;;;;;4.28;3.17;;;23.30;99.90;;;;;;4161591;28;20216;-74
2022/06/27 04:06:09;;;;;;;3.97;2.92;;;23.30;99.90;;;;;;4160774;28;20221;-74
2022/06/27 04:08:13;;;;;;;3.35;2.70;;;23.20;99.90;;;;;;4161186;28;20236;-74
2022/06/27 04:10:16;;;;;;;4.18;3.05;;;23.30;99.90;;;;;;4162595;28;20266;-73
2022/06/27 04:12:18;;;;;;;4.95;2.60;;;23.20;99.90;;;;;;4160148;28;20221;-73
2022/06/27 04:14:20;;;;;;;3.88;3.00;;;23.30;99.90;;;;;;4162422;28;20212;-74
2022/06/27 04:16:22;;;;;;;5.47;3.03;;;23.20;99.90;;;;;;4161664;28;20302;-74
2022/06/27 04:18:25;;;;;;;3.97;2.58;;;23.20;99.90;;;;;;4159158;28;20213;-74
2022/06/27 04:20:27;;;;;;;3.50;2.85;;;23.20;99.90;;;;;;4159181;28;20241;-74
2022/06/27 04:22:29;;;;;;;3.72;3.00;;;23.20;99.90;;;;;;4161142;28;20248;-73
2022/06/27 04:24:33;;;;;;;4.28;2.95;;;23.20;99.90;;;;;;4161278;28;20239;-74
2022/06/27 04:26:36;;;;;;;3.45;2.97;;;23.20;99.90;;;;;;4160862;28;20212;-74
2022/06/27 04:28:38;;;;;;;3.85;3.08;;;23.20;99.90;;;;;;4160166;28;20221;-74
2022/06/27 04:30:41;;;;;;;3.65;2.90;;;23.30;99.90;;;;;;4158016;28;20212;-73
2022/06/27 04:32:44;;;;;;;3.17;2.60;;;23.20;99.90;;;;;;4159835;28;20204;-74
2022/06/27 04:34:47;;;;;;;4.00;2.90;;;23.20;99.90;;;;;;4161038;28;20286;-74
2022/06/27 04:36:49;;;;;;;3.75;2.90;;;23.30;99.90;;;;;;4160587;28;20224;-74
2022/06/27 04:38:51;;;;;;;3.88;2.60;;;23.20;99.90;;;;;;4160762;28;20208;-74
2022/06/27 04:40:55;;;;;;;3.33;2.63;;;23.20;99.90;;;;;;4161027;28;20224;-74
2022/06/27 04:42:57;;;;;;;4.07;2.80;;;23.20;99.90;;;;;;4160904;28;20235;-74
2022/06/27 04:45:01;;;;;;;3.13;2.65;;;23.20;99.90;;;;;;4159622;28;20217;-74
2022/06/27 04:47:07;;;;;;;4.20;2.90;;;23.20;99.90;;;;;;4158058;28;20212;-74
2022/06/27 04:49:09;;;;;;;4.13;2.80;;;23.20;99.90;;;;;;4160917;28;20274;-74
2022/06/27 04:51:13;;;;;;;5.10;2.58;;;23.30;99.90;;;;;;4160840;28;20209;-74
2022/06/27 04:53:18;;;;;;;2.78;2.55;;;23.30;99.90;;;;;;4158649;28;20205;-74
2022/06/27 04:55:20;;;;;;;3.47;2.42;;;23.30;99.90;;;;;;4160956;28;20278;-74
2022/06/27 04:57:24;;;;;;;3.42;2.65;;;23.20;99.90;;;;;;4159286;28;20216;-74
2022/06/27 04:59:27;;;;;;;3.50;2.38;;;23.30;99.90;;;;;;4159538;28;20212;-74
2022/06/27 05:01:29;;;;;;;2.78;2.47;;;23.30;99.90;;;;;;4159679;28;20679;-74
2022/06/27 05:03:32;;;;;;;3.47;2.50;;;23.30;99.90;;;;;;4158930;28;20233;-74
2022/06/27 05:05:34;;;;;;;4.03;2.58;;;23.30;99.90;;;;;;4160459;28;20263;-74
2022/06/27 05:07:36;;;;;;;4.65;2.95;;;23.30;99.90;;;;;;4160201;28;20216;-74
2022/06/27 05:09:39;;;;;;;3.20;2.70;;;23.30;99.90;;;;;;4159691;28;20262;-74
2022/06/27 05:11:42;;;;;;;3.83;2.90;;;23.30;99.90;;;;;;4161052;28;20287;-74
2022/06/27 05:13:45;;;;;;;4.43;3.00;;;23.30;99.90;;;;;;4159635;28;20270;-74
2022/06/27 05:15:47;;;;;;;3.75;2.75;;;23.30;99.90;;;;;;4160422;28;20565;-74
2022/06/27 05:17:50;;;;;;;3.30;2.70;;;23.30;99.90;;;;;;4160554;28;20627;-74
2022/06/27 05:19:52;;;;;;;6.18;2.95;;;23.30;99.90;;;;;;4159684;28;20828;-74
2022/06/27 05:21:55;;;;;;;3.85;2.85;;;23.30;99.90;;;;;;4159007;28;20229;-74
2022/06/27 05:23:57;;;;;;;4.30;2.92;;;23.30;99.90;;;;;;4159862;28;20576;-74
2022/06/27 05:26:02;;;;;;;4.65;2.70;;;23.30;99.90;;;;;;4160301;28;20274;-74
2022/06/27 05:28:05;;;;;;;3.88;2.72;;;23.30;99.90;;;;;;4160446;28;20557;-74
2022/06/27 05:30:11;;;;;;;3.90;2.80;;;23.30;99.90;;;;;;4160412;28;20216;-74
2022/06/27 05:32:13;;;;;;;4.38;2.67;;;23.30;99.90;;;;;;4157556;28;20273;-74
2022/06/27 05:34:16;;;;;;;3.47;2.67;;;23.30;99.90;;;;;;4157995;28;20645;-74
2022/06/27 05:36:19;;;;;;;3.55;2.65;;;23.30;99.90;;;;;;4159865;28;20220;-74
2022/06/27 05:38:21;;;;;;;3.08;2.75;;;23.40;99.90;;;;;;4158159;28;20247;-74
2022/06/27 05:40:24;;;;;;;3.42;2.80;;;23.30;99.90;;;;;;4160124;28;20952;-74
2022/06/27 05:42:27;;;;;;;3.60;2.60;;;23.30;99.90;;;;;;4159296;28;20291;-74
2022/06/27 05:44:29;;;;;;;4.25;2.97;;;23.40;99.90;;;;;;4159602;28;20223;-74
2022/06/27 05:46:33;;;;;;;4.18;2.85;;;23.30;99.90;;;;;;4158659;28;20213;-74
2022/06/27 05:48:37;;;;;;;3.78;2.65;;;23.40;99.90;;;;;;4159565;28;20216;-74
2022/06/27 05:50:39;;;;;;;4.65;2.60;;;23.40;99.90;;;;;;4159450;28;20209;-74
2022/06/27 05:52:42;;;;;;;3.28;2.78;;;23.40;99.90;;;;;;4159379;28;20217;-74
2022/06/27 05:54:44;;;;;;;3.67;2.97;;;23.40;99.90;;;;;;4158427;28;20989;-74
2022/06/27 05:56:47;;;;;;;4.22;2.97;;;23.40;99.90;;;;;;4157766;28;20213;-74
2022/06/27 05:58:50;;;;;;;4.13;2.60;;;23.30;99.90;;;;;;4157739;28;20216;-74
2022/06/27 06:00:53;;;;;;;2.95;2.50;;;23.40;99.90;;;;;;4157409;28;20267;-73
2022/06/27 06:02:57;;;;;;;2.90;2.60;;;23.40;99.90;;;;;;4158646;28;20236;-74
2022/06/27 06:05:01;;;;;;;4.18;2.65;;;23.40;99.90;;;;;;4159739;28;20594;-74
2022/06/27 06:07:05;;;;;;;3.05;2.42;;;23.40;99.90;;;;;;4156382;28;20259;-74
2022/06/27 06:09:07;;;;;;;3.40;2.67;;;23.40;99.90;;;;;;4158085;28;20225;-74
2022/06/27 06:11:09;;;;;;;4.07;2.58;;;23.30;99.90;;;;;;4157490;28;20603;-74
2022/06/27 06:13:13;;;;;;;4.05;2.60;;;23.30;99.90;;;;;;4156305;28;20614;-74
2022/06/27 06:15:15;;;;;;;4.00;2.60;;;23.30;99.90;;;;;;4159778;28;20239;-74
2022/06/27 06:17:18;;;;;;;3.40;2.70;;;23.30;99.90;;;;;;4159301;28;20271;-74
2022/06/27 06:19:22;;;;;;;4.22;2.78;;;23.30;99.90;;;;;;4159494;28;20275;-74
2022/06/27 06:21:25;;;;;;;3.33;2.75;;;23.30;99.90;;;;;;4159767;28;20212;-73
2022/06/27 06:23:27;;;;;;;5.30;2.63;;;23.40;99.90;;;;;;4159457;28;20232;-74
2022/06/27 06:25:30;;;;;;;3.83;2.97;;;23.30;99.90;;;;;;4159539;28;20742;-74
2022/06/27 06:27:33;;;;;;;3.70;2.90;;;23.30;99.90;;;;;;4159561;28;20213;-74
2022/06/27 06:29:36;;;;;;;3.40;2.40;;;23.40;99.90;;;;;;4158895;28;20246;-76
2022/06/27 06:31:40;;;;;;;3.80;2.50;;;23.30;99.90;;;;;;4159549;28;20809;-75
2022/06/27 06:33:43;;;;;;;9.77;2.85;;;23.30;99.90;;;;;;4159990;28;20208;-75
2022/06/27 06:35:47;;;;;;;10.82;3.30;;;23.10;99.90;;;;;;4153028;28;20220;-76
2022/06/27 06:37:50;;;;;;;8.93;3.15;;;22.90;99.90;;;;;;4156577;28;20220;-76
2022/06/27 06:39:53;;;;;;;5.43;3.33;;;22.80;99.90;;;;;;4159262;28;20228;-76
2022/06/27 06:41:57;;;;;;;9.73;3.55;;;22.70;99.90;;;;;;4158497;28;20905;-76
2022/06/27 06:43:59;;;;;;;6.85;2.95;;;22.70;99.90;;;;;;4156636;28;20240;-76
2022/06/27 06:46:02;;;;;;;8.98;3.40;;;22.60;99.90;;;;;;4153086;28;20217;-76
2022/06/27 06:48:05;;;;;;;8.82;3.30;;;22.60;99.90;;;;;;4156651;28;20224;-76
2022/06/27 06:50:10;;;;;;;7.55;2.80;;;22.50;99.90;;;;;;4159601;28;20269;-76
2022/06/27 06:52:13;;;;;;;8.27;3.42;;;22.50;99.90;;;;;;4159989;28;20521;-77
2022/06/27 06:54:20;;;;;;;12.95;3.13;;;22.50;99.90;;;;;;4159493;28;20224;-76
2022/06/27 06:56:22;;;;;;;4.28;2.70;;;22.50;99.90;;;;;;4159703;28;20274;-76
2022/06/27 06:58:26;;;;;;;9.20;2.97;;;22.50;99.90;;;;;;4159226;28;20630;-75
2022/06/27 07:00:28;;;;;;;9.07;3.45;;;22.40;99.90;;;;;;4154728;28;20250;-75
2022/06/27 07:02:30;;;;;;;11.85;3.33;;;22.40;99.90;;;;;;4158129;28;20212;-74
2022/06/27 07:04:33;;;;;;;15.18;3.67;;;22.30;99.90;;;;;;4158677;28;20236;-75
2022/06/27 07:06:36;;;;;;;11.15;3.65;;;22.20;99.90;;;;;;4158450;28;20213;-75
2022/06/27 07:08:40;;;;;;;13.25;3.65;;;22.20;99.90;;;;;;4156750;28;20278;-75
2022/06/27 07:10:43;;;;;;;10.77;3.40;;;22.20;99.90;;;;;;4154765;28;20224;-75
2022/06/27 07:12:46;;;;;;;6.93;3.10;;;22.00;99.90;;;;;;4157114;28;20212;-76
2022/06/27 07:14:48;;;;;;;9.30;4.00;;;22.00;99.90;;;;;;4160480;28;20205;-76
2022/06/27 07:16:50;;;;;;;12.07;3.50;;;22.00;99.90;;;;;;4157023;28;20262;-75
2022/06/27 07:18:54;;;;;;;21.40;3.67;;;22.00;99.90;;;;;;4153742;28;20243;-75
2022/06/27 07:20:57;;;;;;;10.27;3.70;;;22.00;99.90;;;;;;4152587;28;20243;-78
2022/06/27 07:23:00;;;;;;;12.50;3.50;;;22.00;99.90;;;;;;4155536;28;20216;-75
2022/06/27 07:25:18;;;;;;;11.38;3.58;;;21.90;99.90;;;;;;4153773;28;20240;-79
2022/06/27 07:27:20;;;;;;;8.02;3.55;;;22.10;99.90;;;;;;4158273;28;20231;-80
2022/06/27 07:29:32;;;;;;;12.52;3.85;;;22.30;99.90;;;;;;4155536;28;20369;-75
2022/06/27 07:31:34;;;;;;;11.43;3.75;;;22.20;99.90;;;;;;4156197;28;20221;-76
2022/06/27 07:33:38;;;;;;;11.50;3.63;;;22.20;99.90;;;;;;4153385;28;20213;-75
2022/06/27 07:35:41;;;;;;;7.18;3.30;;;22.20;99.90;;;;;;4156664;28;20665;-75
2022/06/27 07:37:45;;;;;;;45.30;6.28;;;22.20;99.90;;;;;;4156141;28;20216;-76
2022/06/27 07:39:49;;;;;;;15.98;4.20;;;22.20;99.90;;;;;;4149791;28;20686;-77
2022/06/27 07:41:53;;;;;;;13.38;4.10;;;22.20;99.90;;;;;;4155879;28;20254;-78
2022/06/27 07:43:55;;;;;;;9.15;3.50;;;22.20;99.90;;;;;;4154582;28;20264;-78
2022/06/27 07:45:58;;;;;;;16.23;4.30;;;22.20;99.90;;;;;;4154215;28;20260;-78
2022/06/27 07:48:00;;;;;;;12.98;4.38;;;22.10;99.90;;;;;;4154800;28;20229;-77
2022/06/27 07:50:07;;;;;;;14.07;4.07;;;22.10;99.90;;;;;;4159715;28;20287;-75
2022/06/27 07:52:10;;;;;;;12.07;3.72;;;22.20;99.90;;;;;;4153004;28;20208;-77
2022/06/27 07:54:13;;;;;;;8.07;3.85;;;22.10;99.90;;;;;;4153302;28;20712;-76
2022/06/27 07:56:16;;;;;;;16.50;3.35;;;22.00;99.90;;;;;;4154310;28;20278;-76
2022/06/27 07:58:24;;;;;;;8.52;3.50;;;22.10;99.90;;;;;;4153156;28;20282;-77
2022/06/27 08:00:27;;;;;;;13.82;3.75;;;22.10;99.90;;;;;;4156299;28;20290;-75
2022/06/27 08:02:30;;;;;;;12.35;3.65;;;22.20;99.90;;;;;;4152105;28;20315;-76
2022/06/27 08:04:36;;;;;;;10.68;3.72;;;22.20;99.90;;;;;;4155051;28;20794;-76
2022/06/27 08:06:39;;;;;;;10.10;3.58;;;22.20;99.90;;;;;;4149945;28;20208;-76
2022/06/27 08:08:45;;;;;;;12.90;3.47;;;22.20;99.90;;;;;;4154223;28;20588;-76
2022/06/27 08:10:58;;;;;;;13.13;3.63;;;22.40;99.90;;;;;;4154216;28;20308;-76
2022/06/27 08:13:01;;;;;;;11.52;3.47;;;22.40;99.90;;;;;;4155506;28;20237;-76
2022/06/27 08:15:06;;;;;;;12.77;3.38;;;22.40;99.90;;;;;;4149284;28;20266;-77
2022/06/27 08:17:08;;;;;;;12.98;4.05;;;22.40;99.90;;;;;;4154156;28;20231;-76
2022/06/27 08:19:12;;;;;;;10.35;3.63;;;22.60;99.90;;;;;;4159380;28;20212;-76
2022/06/27 08:21:16;;;;;;;11.73;3.35;;;22.70;99.90;;;;;;4155308;28;20786;-76
2022/06/27 08:23:19;;;;;;;10.95;3.67;;;22.90;99.90;;;;;;4151275;28;20212;-77
2022/06/27 08:25:21;;;;;;;12.15;3.95;;;23.00;99.90;;;;;;4151936;28;20323;-77
2022/06/27 08:27:23;;;;;;;10.25;4.07;;;23.10;99.90;;;;;;4145568;28;20212;-76
2022/06/27 08:29:27;;;;;;;11.13;3.38;;;23.10;99.90;;;;;;4158868;28;20974;-75
2022/06/27 08:31:32;;;;;;;9.80;3.70;;;23.10;99.90;;;;;;4156082;28;20208;-76
2022/06/27 08:33:35;;;;;;;8.75;3.58;;;23.10;99.90;;;;;;4154330;28;20208;-76
2022/06/27 08:35:39;;;;;;;6.65;3.05;;;23.20;99.90;;;;;;4152295;28;20299;-76
2022/06/27 08:37:43;;;;;;;9.13;2.97;;;23.30;99.90;;;;;;4151817;28;20306;-78
2022/06/27 08:39:45;;;;;;;8.65;2.85;;;23.40;99.90;;;;;;4144966;28;20267;-78
2022/06/27 08:41:48;;;;;;;7.47;2.90;;;23.40;99.90;;;;;;4157360;28;20209;-78
2022/06/27 08:43:55;;;;;;;8.43;3.08;;;23.40;99.90;;;;;;4153439;28;20615;-76
2022/06/27 08:45:58;;;;;;;6.18;2.65;;;23.40;99.90;;;;;;4148232;28;20221;-77
2022/06/27 08:48:07;;;;;;;9.68;2.88;;;23.50;99.90;;;;;;4156473;28;20216;-77
2022/06/27 08:50:11;;;;;;;9.93;3.75;;;23.60;99.90;;;;;;4153173;28;20220;-74
2022/06/27 08:52:13;;;;;;;15.88;3.20;;;23.40;99.90;;;;;;4154590;28;20900;-75
2022/06/27 08:54:15;;;;;;;9.23;3.10;;;23.50;99.90;;;;;;4158799;28;20225;-75
2022/06/27 08:56:19;;;;;;;10.07;3.13;;;23.60;99.90;;;;;;4149053;28;20216;-76
2022/06/27 08:58:25;;;;;;;10.15;3.17;;;23.60;99.90;;;;;;4151974;28;20209;-77
2022/06/27 09:00:27;;;;;;;12.38;3.17;;;23.70;99.90;;;;;;4151150;28;20225;-76
2022/06/27 09:02:31;;;;;;;8.27;3.22;;;23.70;99.90;;;;;;4153338;28;20220;-76
2022/06/27 09:04:57;;;;;;;13.25;2.90;;;23.70;99.90;;;;;;4160889;28;20236;-76
2022/06/27 09:07:00;;;;;;;9.38;3.00;;;23.70;99.90;;;;;;4153655;28;20220;-77
2022/06/27 09:09:06;;;;;;;12.35;3.20;;;23.80;99.90;;;;;;4156362;28;20237;-75
2022/06/27 09:11:09;;;;;;;7.35;2.90;;;23.80;99.90;;;;;;4156472;28;20688;-76
2022/06/27 09:13:12;;;;;;;6.65;2.70;;;23.80;99.90;;;;;;4158134;28;20270;-77
2022/06/27 09:15:15;;;;;;;8.80;2.85;;;23.80;99.90;;;;;;4152310;28;21847;-81
2022/06/27 09:17:17;;;;;;;8.07;3.08;;;23.80;99.90;;;;;;4150487;28;20221;-77
2022/06/27 09:19:41;;;;;;;12.45;3.55;;;23.80;99.90;;;;;;4157524;28;20208;-79
2022/06/27 09:21:45;;;;;;;9.68;3.03;;;23.80;99.90;;;;;;4153237;28;20288;-78
2022/06/27 09:23:49;;;;;;;9.13;2.85;;;23.70;99.90;;;;;;4155185;28;20637;-77
2022/06/27 09:26:01;;;;;;;9.48;2.80;;;23.70;99.90;;;;;;4154777;28;20244;-77
2022/06/27 09:28:04;;;;;;;6.32;2.70;;;23.80;99.90;;;;;;4153301;28;20247;-77
2022/06/27 09:30:29;;;;;;;7.43;2.78;;;23.80;99.90;;;;;;4155099;28;20352;-79
2022/06/27 09:32:32;;;;;;;8.82;3.08;;;23.80;99.90;;;;;;4159536;28;20259;-77
2022/06/27 09:34:34;;;;;;;10.07;3.38;;;23.80;99.90;;;;;;4152030;28;20278;-79
2022/06/27 09:36:42;;;;;;;10.00;2.97;;;23.80;99.90;;;;;;4156272;28;20262;-78
2022/06/27 09:38:48;;;;;;;10.07;2.90;;;23.70;99.90;;;;;;4154069;28;20220;-79
2022/06/27 09:40:59;;;;;;;5.97;2.92;;;23.70;99.90;;;;;;4156825;28;20239;-78
2022/06/27 09:43:03;;;;;;;12.02;2.88;;;23.80;99.90;;;;;;4154524;28;20266;-79
2022/06/27 09:45:09;;;;;;;9.00;3.10;;;23.90;99.90;;;;;;4151368;28;20240;-78
2022/06/27 09:47:15;;;;;;;9.82;3.42;;;23.90;99.90;;;;;;4156280;28;20249;-78
2022/06/27 09:49:19;;;;;;;7.20;3.10;;;23.90;99.90;;;;;;4156623;28;20647;-78
2022/06/27 09:51:22;;;;;;;7.28;2.63;;;23.90;99.90;;;;;;4158450;28;20235;-78
2022/06/27 09:53:27;;;;;;;4.22;2.50;;;24.00;99.90;;;;;;4155798;28;20653;-81
2022/06/27 09:55:31;;;;;;;5.15;2.88;;;24.00;99.90;;;;;;4150141;28;20221;-78
2022/06/27 09:57:34;;;;;;;6.88;2.58;;;24.00;99.90;;;;;;4157411;28;20220;-79
2022/06/27 09:59:37;;;;;;;8.10;2.90;;;24.10;99.90;;;;;;4154844;28;20239;-79
2022/06/27 10:01:42;;;;;;;6.47;2.80;;;24.10;99.90;;;;;;4158068;28;20258;-78
2022/06/27 10:03:45;;;;;;;6.30;2.70;;;24.10;99.90;;;;;;4156368;28;20750;-78
2022/06/27 10:05:48;;;;;;;7.25;2.50;;;24.10;99.90;;;;;;4153709;28;20286;-78
2022/06/27 10:07:55;;;;;;;11.68;3.08;;;24.10;99.90;;;;;;4158132;28;20282;-76
2022/06/27 10:09:58;;;;;;;7.63;3.08;;;24.10;99.90;;;;;;4156476;28;20270;-77
2022/06/27 10:12:23;;;;;;;3.60;2.25;;;24.10;99.90;;;;;;4156161;28;20754;-77
2022/06/27 10:14:26;;;;;;;7.57;2.72;;;24.00;99.90;;;;;;4156215;28;20266;-78
2022/06/27 10:16:30;;;;;;;6.82;3.15;;;24.10;99.90;;;;;;4150079;28;20263;-77
2022/06/27 10:18:54;;;;;;;7.07;2.72;;;24.20;99.90;;;;;;4158946;28;20212;-77
2022/06/27 10:20:58;;;;;;;7.10;2.83;;;24.20;99.90;;;;;;4153961;28;20216;-77
2022/06/27 10:23:25;;;;;;;5.45;2.67;;;24.10;99.90;;;;;;4153222;28;20262;-79
2022/06/27 10:25:37;;;;;;;4.75;2.30;;;24.20;99.90;;;;;;4148598;28;20321;-77
2022/06/27 10:27:41;;;;;;;9.98;3.08;;;24.10;99.90;;;;;;4157006;28;20242;-77
2022/06/27 10:29:45;;;;;;;6.43;2.65;;;24.10;99.90;;;;;;4161788;28;20274;-77
2022/06/27 10:31:47;;;;;;;6.38;2.60;;;24.10;99.90;;;;;;4159526;28;20736;-80
2022/06/27 10:33:50;;;;;;;11.38;3.03;;;24.00;99.90;;;;;;4155713;28;20216;-78
2022/06/27 10:36:10;;;;;;;6.32;2.55;;;24.10;99.90;;;;;;4157041;28;20303;-78
2022/06/27 10:38:22;;;;;;;6.32;2.90;;;24.10;99.90;;;;;;4155533;28;20208;-78
2022/06/27 10:40:52;;;;;;;7.85;3.10;;;24.20;99.90;;;;;;4157803;28;20633;-78
2022/06/27 10:42:57;;;;;;;6.25;3.00;;;24.20;99.90;;;;;;4154434;28;20213;-77
2022/06/27 10:45:23;;;;;;;7.03;2.90;;;24.20;99.90;;;;;;4150940;28;20350;-79
2022/06/27 10:47:33;;;;;;;5.35;2.30;;;24.10;99.90;;;;;;4156983;28;20282;-82